Time;durP1;ratioP1;P1;durP2;ratioP2;P2;SDS_P1;SDS_P2;PMS_P1;PMS_P2;Temp;Humidity;BMP_temperature;BMP_pressure;BME280_temperature;BME280_humidity;BME280_pressure;Samples;Min_cycle;Max_cycle;Signal;HPM_P1;HPM_P2
2021/06/20 00:02:03;;;;;;;15.63;9.47;;;24.10;74.90;;;;;;5166749;27;20230;-69
2021/06/20 00:04:30;;;;;;;11.37;9.33;;;24.10;74.90;;;;;;5165434;27;20609;-69
2021/06/20 00:06:57;;;;;;;12.73;9.70;;;24.10;74.80;;;;;;5165835;27;20278;-69
2021/06/20 00:09:24;;;;;;;18.90;10.17;;;24.10;74.70;;;;;;5142937;27;20203;-69
2021/06/20 00:11:51;;;;;;;16.40;9.23;;;24.10;74.70;;;;;;5162289;27;20219;-69
2021/06/20 00:14:18;;;;;;;17.73;10.63;;;24.10;74.80;;;;;;5167454;27;20259;-69
2021/06/20 00:16:45;;;;;;;11.63;9.87;;;24.10;74.90;;;;;;5163529;27;20279;-69
2021/06/20 00:19:13;;;;;;;13.17;9.67;;;24.10;74.90;;;;;;5162683;27;20709;-69
2021/06/20 00:21:40;;;;;;;14.00;10.23;;;24.10;74.80;;;;;;5161958;27;20206;-69
2021/06/20 00:24:08;;;;;;;18.20;10.93;;;24.10;74.70;;;;;;5165368;27;20238;-69
2021/06/20 00:26:35;;;;;;;19.47;9.97;;;24.10;74.70;;;;;;5165109;27;20214;-69
2021/06/20 00:29:02;;;;;;;14.17;9.50;;;24.10;74.60;;;;;;5166079;27;20206;-69
2021/06/20 00:31:30;;;;;;;10.37;8.63;;;24.00;74.40;;;;;;5163999;27;20214;-69
2021/06/20 00:33:57;;;;;;;13.37;9.40;;;24.00;74.40;;;;;;5149147;27;20206;-69
2021/06/20 00:36:24;;;;;;;21.50;10.57;;;24.00;74.40;;;;;;5159870;27;20219;-69
2021/06/20 00:38:51;;;;;;;10.20;9.10;;;24.00;74.40;;;;;;5166349;27;20270;-69
2021/06/20 00:41:18;;;;;;;12.70;9.90;;;24.00;74.20;;;;;;5161204;27;20214;-69
2021/06/20 00:43:45;;;;;;;15.90;9.50;;;24.00;74.10;;;;;;5165277;27;20575;-69
2021/06/20 00:46:11;;;;;;;10.43;8.97;;;24.00;74.40;;;;;;5165632;27;20279;-69
2021/06/20 00:48:39;;;;;;;13.23;9.17;;;24.00;74.30;;;;;;5161896;27;20207;-69
2021/06/20 00:51:06;;;;;;;12.60;8.90;;;24.00;74.20;;;;;;5162210;27;20210;-69
2021/06/20 00:53:34;;;;;;;13.00;8.10;;;24.00;74.20;;;;;;5166279;27;20266;-69
2021/06/20 00:56:01;;;;;;;13.03;8.50;;;24.00;74.00;;;;;;5159813;27;20211;-69
2021/06/20 00:58:29;;;;;;;16.27;7.63;;;24.10;73.90;;;;;;5166112;27;20243;-69
2021/06/20 01:00:56;;;;;;;16.03;7.77;;;24.10;73.60;;;;;;5164555;27;20287;-69
2021/06/20 01:03:23;;;;;;;20.73;8.07;;;24.20;73.30;;;;;;5165068;27;20230;-69
2021/06/20 01:05:50;;;;;;;14.87;8.13;;;24.20;73.10;;;;;;5165829;27;20210;-69
2021/06/20 01:08:17;;;;;;;11.07;7.53;;;24.10;72.70;;;;;;5163113;27;20195;-67
2021/06/20 01:10:44;;;;;;;12.03;7.03;;;24.10;72.60;;;;;;5158891;27;20203;-67
2021/06/20 01:13:16;;;;;;;9.60;7.10;;;24.00;72.60;;;;;;5158949;27;20239;-67
2021/06/20 01:15:46;;;;;;;11.60;7.00;;;24.00;72.90;;;;;;5165533;27;20274;-67
2021/06/20 01:18:14;;;;;;;11.13;7.03;;;23.90;73.00;;;;;;5167096;27;20274;-67
2021/06/20 01:20:41;;;;;;;8.53;6.93;;;23.90;73.00;;;;;;5165648;27;20214;-67
2021/06/20 01:23:09;;;;;;;14.03;6.90;;;23.90;73.10;;;;;;5163164;27;20227;-67
2021/06/20 01:25:42;;;;;;;15.80;7.20;;;23.90;73.20;;;;;;5166878;27;20234;-67
2021/06/20 01:28:10;;;;;;;13.87;8.13;;;23.90;73.10;;;;;;5166790;27;20211;-67
2021/06/20 01:30:44;;;;;;;14.47;8.27;;;23.90;72.80;;;;;;5164799;27;20652;-67
2021/06/20 01:33:13;;;;;;;15.13;8.23;;;23.80;72.70;;;;;;5163527;27;20211;-67
2021/06/20 01:35:41;;;;;;;16.93;8.83;;;23.70;73.00;;;;;;5159167;27;20275;-67
2021/06/20 01:38:10;;;;;;;12.67;8.67;;;23.60;73.30;;;;;;5165946;27;20211;-67
2021/06/20 01:40:37;;;;;;;8.87;7.93;;;23.50;73.70;;;;;;5161246;27;20289;-67
2021/06/20 01:43:05;;;;;;;9.17;8.27;;;23.40;74.00;;;;;;5164815;27;20235;-67
2021/06/20 01:45:32;;;;;;;12.67;8.10;;;23.30;74.10;;;;;;5163750;27;20246;-67
2021/06/20 01:48:00;;;;;;;14.17;8.73;;;23.30;74.10;;;;;;5166123;27;20559;-67
2021/06/20 01:50:28;;;;;;;11.17;8.17;;;23.40;74.20;;;;;;5161224;27;20214;-67
2021/06/20 01:53:06;;;;;;;15.97;8.53;;;23.40;74.20;;;;;;5163236;27;20280;-67
2021/06/20 01:55:35;;;;;;;13.43;8.87;;;23.40;74.70;;;;;;5163601;27;20749;-67
2021/06/20 01:58:07;;;;;;;11.17;8.80;;;23.40;73.80;;;;;;5165558;27;20210;-68
2021/06/20 02:00:39;;;;;;;12.00;7.87;;;23.40;73.90;;;;;;5159304;27;20218;-67
2021/06/20 02:05:52;;;;;;;14.40;9.00;;;23.20;74.20;;;;;;5154543;27;20177;-67
2021/06/20 02:08:19;;;;;;;18.37;8.40;;;23.20;74.20;;;;;;5165926;27;20202;-67
2021/06/20 02:10:50;;;;;;;16.97;8.60;;;23.20;74.30;;;;;;5165702;27;20621;-67
2021/06/20 02:13:20;;;;;;;12.47;8.13;;;23.20;74.30;;;;;;5165893;27;20222;-68
2021/06/20 02:15:47;;;;;;;19.17;9.63;;;23.20;74.20;;;;;;5163825;27;20207;-69
2021/06/20 02:18:15;;;;;;;15.83;8.17;;;23.20;74.30;;;;;;5156202;27;20215;-69
2021/06/20 02:20:42;;;;;;;15.90;8.70;;;23.20;74.30;;;;;;5160376;27;20203;-69
2021/06/20 02:23:09;;;;;;;12.57;8.90;;;23.20;74.40;;;;;;5166572;27;20616;-69
2021/06/20 02:25:37;;;;;;;17.93;9.47;;;23.20;74.40;;;;;;5143106;27;20207;-69
2021/06/20 02:28:04;;;;;;;17.17;9.57;;;23.20;74.40;;;;;;5167108;27;20214;-69
2021/06/20 02:30:31;;;;;;;12.63;9.73;;;23.20;74.30;;;;;;5167328;27;20221;-69
2021/06/20 02:32:58;;;;;;;12.60;10.23;;;23.20;74.30;;;;;;5173333;27;20234;-69
2021/06/20 02:35:26;;;;;;;22.10;10.00;;;23.20;74.30;;;;;;5157489;27;20226;-69
2021/06/20 02:37:54;;;;;;;11.97;9.83;;;23.20;74.40;;;;;;5157424;27;20210;-69
2021/06/20 02:40:21;;;;;;;19.47;9.90;;;23.20;74.40;;;;;;5152476;27;20562;-69
2021/06/20 02:42:48;;;;;;;15.67;9.63;;;23.20;74.50;;;;;;5169081;27;20238;-69
2021/06/20 02:45:20;;;;;;;15.93;10.10;;;23.20;74.50;;;;;;5168272;27;20210;-69
2021/06/20 02:47:49;;;;;;;27.77;10.77;;;23.10;74.60;;;;;;5149953;27;20221;-69
2021/06/20 02:50:17;;;;;;;17.03;10.90;;;23.10;74.60;;;;;;5161436;27;20214;-69
2021/06/20 02:52:45;;;;;;;19.53;10.47;;;23.20;74.70;;;;;;5162984;27;20755;-69
2021/06/20 02:55:12;;;;;;;15.23;10.70;;;23.20;74.60;;;;;;5161974;27;20243;-69
2021/06/20 02:57:40;;;;;;;11.90;10.57;;;23.10;74.60;;;;;;5162810;27;20527;-69
2021/06/20 03:00:08;;;;;;;14.83;11.50;;;23.10;74.90;;;;;;5166805;27;20214;-69
2021/06/20 03:02:35;;;;;;;13.17;9.97;;;23.00;75.20;;;;;;5169233;27;20483;-69
2021/06/20 03:05:03;;;;;;;16.40;9.83;;;23.00;75.50;;;;;;5162414;27;20220;-69
2021/06/20 03:07:30;;;;;;;17.67;10.80;;;23.00;75.60;;;;;;5165595;27;20652;-69
2021/06/20 03:09:57;;;;;;;14.53;10.07;;;23.00;75.60;;;;;;5169026;27;20203;-69
2021/06/20 03:12:24;;;;;;;15.60;9.13;;;23.10;75.50;;;;;;5165507;27;20215;-69
2021/06/20 03:14:52;;;;;;;14.60;8.70;;;23.10;75.30;;;;;;5162998;27;20636;-69
2021/06/20 03:17:19;;;;;;;17.20;9.33;;;23.20;75.10;;;;;;5166485;27;20664;-69
2021/06/20 03:19:48;;;;;;;13.47;9.60;;;23.30;74.80;;;;;;5161414;27;20202;-69
2021/06/20 03:22:15;;;;;;;13.87;9.43;;;23.30;74.60;;;;;;5168061;27;20238;-69
2021/06/20 03:24:45;;;;;;;15.37;9.10;;;23.30;74.70;;;;;;5164785;27;20230;-69
2021/06/20 03:30:57;;;;;;;12.57;9.33;;;23.30;74.70;;;;;;5156325;27;20202;-69
2021/06/20 03:33:24;;;;;;;16.33;9.43;;;23.20;74.70;;;;;;5159615;27;20267;-69
2021/06/20 03:35:51;;;;;;;16.30;9.10;;;23.30;74.80;;;;;;5161647;27;20211;-69
2021/06/20 03:38:17;;;;;;;16.33;9.13;;;23.30;75.00;;;;;;5166078;27;20214;-69
2021/06/20 03:40:45;;;;;;;19.33;8.33;;;23.40;75.00;;;;;;5162062;27;20214;-69
2021/06/20 03:43:11;;;;;;;13.27;8.37;;;23.40;74.80;;;;;;5159595;27;20230;-69
2021/06/20 03:45:40;;;;;;;15.47;8.90;;;23.50;74.70;;;;;;5163131;27;20364;-69
2021/06/20 03:48:07;;;;;;;13.03;8.80;;;23.50;74.20;;;;;;5160575;27;20235;-69
2021/06/20 03:50:34;;;;;;;13.10;9.33;;;23.60;73.90;;;;;;5160648;27;20267;-69
2021/06/20 03:53:01;;;;;;;18.13;9.63;;;23.60;73.60;;;;;;5167259;27;20214;-69
2021/06/20 03:55:28;;;;;;;13.63;9.83;;;23.70;73.50;;;;;;5165404;27;20251;-69
2021/06/20 03:57:56;;;;;;;15.30;9.10;;;23.70;73.20;;;;;;5165932;27;20221;-69
2021/06/20 04:00:23;;;;;;;17.17;9.30;;;23.80;73.10;;;;;;5166506;27;20240;-69
2021/06/20 04:02:50;;;;;;;15.53;9.63;;;23.80;73.10;;;;;;5164535;27;20528;-69
2021/06/20 04:05:17;;;;;;;16.83;8.07;;;23.80;73.20;;;;;;5156598;27;20256;-69
2021/06/20 04:07:44;;;;;;;17.13;9.37;;;23.80;73.10;;;;;;5160222;27;20226;-69
2021/06/20 04:10:11;;;;;;;14.53;8.57;;;23.80;73.00;;;;;;5166986;27;20210;-69
2021/06/20 04:12:39;;;;;;;13.83;8.90;;;23.90;72.70;;;;;;5159754;27;20252;-69
2021/06/20 04:15:07;;;;;;;13.20;8.83;;;23.90;72.50;;;;;;5152907;27;20266;-69
2021/06/20 04:17:35;;;;;;;13.80;8.67;;;24.00;72.40;;;;;;5164877;27;20214;-69
2021/06/20 04:20:07;;;;;;;19.07;9.57;;;24.00;72.60;;;;;;5167157;27;20219;-69
2021/06/20 04:22:35;;;;;;;11.57;8.77;;;24.00;72.80;;;;;;5160287;27;20210;-69
2021/06/20 04:25:03;;;;;;;17.90;9.33;;;24.00;72.70;;;;;;5166212;27;20234;-69
2021/06/20 04:27:30;;;;;;;17.40;8.90;;;24.10;72.70;;;;;;5164744;27;20223;-69
2021/06/20 04:29:57;;;;;;;13.80;8.83;;;24.10;72.60;;;;;;5165048;27;20206;-69
2021/06/20 04:32:24;;;;;;;19.00;10.80;;;24.10;72.40;;;;;;5148161;27;20219;-69
2021/06/20 04:34:51;;;;;;;12.63;9.67;;;24.10;72.40;;;;;;5160578;27;20203;-69
2021/06/20 04:37:18;;;;;;;19.23;10.87;;;24.10;72.40;;;;;;5167425;27;20218;-69
2021/06/20 04:39:45;;;;;;;18.60;10.37;;;24.10;72.50;;;;;;5160892;27;20207;-69
2021/06/20 04:42:12;;;;;;;17.67;11.43;;;24.10;72.70;;;;;;5166352;27;20210;-69
2021/06/20 04:44:42;;;;;;;12.67;9.77;;;24.10;73.20;;;;;;5159272;27;20235;-69
2021/06/20 04:47:11;;;;;;;19.83;11.33;;;24.10;73.40;;;;;;5165857;27;20211;-69
2021/06/20 04:49:38;;;;;;;15.40;10.80;;;24.10;73.30;;;;;;5163984;27;20222;-69
2021/06/20 04:52:07;;;;;;;24.30;11.33;;;24.10;73.00;;;;;;5167185;27;20207;-69
2021/06/20 04:55:01;;;;;;;14.67;10.10;;;24.10;73.10;;;;;;5164156;27;20273;-69
2021/06/20 04:57:28;;;;;;;15.07;9.87;;;24.20;73.40;;;;;;5157286;27;20214;-69
2021/06/20 05:00:01;;;;;;;18.20;10.27;;;24.20;73.60;;;;;;5164548;27;20218;-69
2021/06/20 05:02:28;;;;;;;20.40;10.73;;;24.30;73.60;;;;;;5159747;27;20580;-69
2021/06/20 05:04:55;;;;;;;19.53;10.27;;;24.30;73.80;;;;;;5160430;27;20298;-69
2021/06/20 05:07:23;;;;;;;16.43;10.13;;;24.30;74.20;;;;;;5166909;27;20582;-69
2021/06/20 05:09:50;;;;;;;17.23;9.83;;;24.40;74.40;;;;;;5160410;27;20542;-69
2021/06/20 05:12:17;;;;;;;20.57;10.80;;;24.50;74.20;;;;;;5163843;27;20275;-69
2021/06/20 05:14:46;;;;;;;26.77;12.20;;;24.50;73.80;;;;;;5164929;27;20679;-69
2021/06/20 05:17:16;;;;;;;16.90;10.73;;;24.50;73.60;;;;;;5165441;27;20215;-69
2021/06/20 05:19:43;;;;;;;15.67;10.27;;;24.60;73.60;;;;;;5165302;27;20206;-69
2021/06/20 05:22:16;;;;;;;16.73;10.33;;;24.60;73.50;;;;;;5152219;27;20217;-69
2021/06/20 05:24:43;;;;;;;17.57;9.67;;;24.70;73.60;;;;;;5165317;27;20697;-69
2021/06/20 05:27:10;;;;;;;18.07;9.50;;;24.80;73.30;;;;;;5164771;27;20230;-70
2021/06/20 05:29:38;;;;;;;18.80;9.50;;;24.90;73.00;;;;;;5157695;27;20575;-69
2021/06/20 05:32:06;;;;;;;20.27;9.77;;;25.00;72.60;;;;;;5166298;27;20230;-69
2021/06/20 05:34:33;;;;;;;16.57;9.37;;;25.10;72.30;;;;;;5160819;27;20218;-69
2021/06/20 05:37:00;;;;;;;16.30;9.50;;;25.20;72.00;;;;;;5158917;27;20639;-69
2021/06/20 05:39:27;;;;;;;19.43;9.87;;;25.20;72.00;;;;;;5164594;27;20210;-69
2021/06/20 05:41:54;;;;;;;14.97;8.80;;;25.30;72.20;;;;;;5165092;27;20207;-69
2021/06/20 05:44:21;;;;;;;18.73;9.97;;;25.40;71.50;;;;;;5168613;27;20226;-69
2021/06/20 05:46:48;;;;;;;13.80;9.00;;;25.40;71.30;;;;;;5170476;27;20210;-69
2021/06/20 05:49:15;;;;;;;22.97;9.07;;;25.40;71.00;;;;;;5166407;27;20206;-69
2021/06/20 05:51:42;;;;;;;12.53;8.73;;;25.60;70.40;;;;;;5165771;27;20260;-69
2021/06/20 05:54:10;;;;;;;13.97;9.10;;;25.60;70.30;;;;;;5170270;27;20248;-69
2021/06/20 05:56:37;;;;;;;20.27;8.67;;;25.80;70.40;;;;;;5167043;27;20543;-69
2021/06/20 05:59:05;;;;;;;18.40;7.60;;;26.10;69.40;;;;;;5169058;27;20214;-69
2021/06/20 06:01:34;;;;;;;13.87;7.53;;;26.40;68.50;;;;;;5163779;27;20210;-69
2021/06/20 06:04:02;;;;;;;15.77;7.77;;;26.70;67.90;;;;;;5169074;27;20237;-69
2021/06/20 06:06:29;;;;;;;15.13;7.67;;;26.90;67.40;;;;;;5164818;27;20210;-69
2021/06/20 06:08:56;;;;;;;14.60;7.50;;;27.00;67.10;;;;;;5166234;27;20215;-69
2021/06/20 06:11:24;;;;;;;12.10;7.17;;;27.20;67.20;;;;;;5169538;27;20202;-69
2021/06/20 06:13:51;;;;;;;19.83;7.17;;;27.20;66.30;;;;;;5161068;27;20215;-69
2021/06/20 06:16:18;;;;;;;18.53;8.13;;;27.30;66.40;;;;;;5168487;27;20214;-69
2021/06/20 06:18:46;;;;;;;17.00;7.83;;;27.30;66.30;;;;;;5165586;27;20256;-69
2021/06/20 06:21:13;;;;;;;10.87;8.10;;;27.40;66.40;;;;;;5165839;27;20226;-69
2021/06/20 06:23:40;;;;;;;12.87;8.47;;;27.50;66.90;;;;;;5166466;27;20215;-69
2021/06/20 06:26:07;;;;;;;13.60;7.57;;;27.50;67.10;;;;;;5164995;27;20585;-70
2021/06/20 06:28:34;;;;;;;11.47;8.23;;;27.50;67.10;;;;;;5162541;27;20207;-70
2021/06/20 06:31:01;;;;;;;15.23;8.80;;;27.50;67.10;;;;;;5150587;27;20214;-69
2021/06/20 06:33:28;;;;;;;16.67;8.77;;;27.50;66.70;;;;;;5159041;27;20207;-69
2021/06/20 06:35:56;;;;;;;13.47;8.77;;;27.50;66.50;;;;;;5163480;27;20210;-69
2021/06/20 06:38:23;;;;;;;14.23;7.80;;;27.40;66.20;;;;;;5164171;27;20211;-69
2021/06/20 06:40:50;;;;;;;13.60;7.83;;;27.40;66.60;;;;;;5166888;27;20232;-69
2021/06/20 06:43:17;;;;;;;17.53;7.60;;;27.40;65.70;;;;;;5164485;27;20211;-69
2021/06/20 06:45:45;;;;;;;10.27;6.47;;;27.30;66.00;;;;;;5161104;27;20682;-69
2021/06/20 06:48:12;;;;;;;15.50;6.60;;;27.40;65.70;;;;;;5161601;27;20207;-69
2021/06/20 06:50:40;;;;;;;10.13;7.33;;;27.50;66.00;;;;;;5166617;27;20647;-70
2021/06/20 06:53:07;;;;;;;11.57;6.97;;;27.80;65.50;;;;;;5162838;27;20561;-70
2021/06/20 06:55:34;;;;;;;16.50;7.10;;;28.00;63.70;;;;;;5145542;27;20240;-70
2021/06/20 06:58:01;;;;;;;13.63;7.03;;;28.00;62.60;;;;;;5144958;27;20214;-69
2021/06/20 07:00:29;;;;;;;11.13;6.67;;;27.80;63.10;;;;;;5140240;27;20215;-69
2021/06/20 07:02:56;;;;;;;13.03;7.13;;;27.70;63.80;;;;;;5140212;27;20752;-69
2021/06/20 07:05:25;;;;;;;10.57;6.87;;;27.70;64.50;;;;;;5141241;27;20249;-69
2021/06/20 07:07:54;;;;;;;10.83;6.30;;;27.80;64.90;;;;;;5143496;27;20215;-69
2021/06/20 07:10:21;;;;;;;11.93;7.27;;;28.10;64.60;;;;;;5146322;27;20211;-69
2021/06/20 07:12:48;;;;;;;10.97;6.23;;;28.50;62.60;;;;;;5140254;27;20229;-69
2021/06/20 07:15:17;;;;;;;9.27;6.90;;;28.90;60.50;;;;;;5143743;27;20219;-69
2021/06/20 07:17:45;;;;;;;10.13;5.83;;;29.10;58.80;;;;;;5140150;27;20212;-69
2021/06/20 07:20:17;;;;;;;13.13;6.10;;;29.30;58.20;;;;;;5145528;27;20586;-69
2021/06/20 07:22:48;;;;;;;14.47;6.93;;;29.50;57.60;;;;;;5143819;27;20300;-70
2021/06/20 07:25:22;;;;;;;11.10;6.87;;;29.60;58.10;;;;;;5140316;27;20280;-70
2021/06/20 07:27:50;;;;;;;13.87;7.20;;;29.80;57.90;;;;;;5137276;27;20204;-70
2021/06/20 07:30:20;;;;;;;12.63;6.30;;;29.90;56.70;;;;;;5142828;27;20211;-70
2021/06/20 07:32:48;;;;;;;14.57;6.30;;;29.90;57.00;;;;;;5145966;27;20211;-70
2021/06/20 07:35:16;;;;;;;8.27;5.60;;;29.90;57.20;;;;;;5142553;27;20219;-70
2021/06/20 07:37:43;;;;;;;12.10;5.60;;;30.00;57.10;;;;;;5140612;27;20247;-70
2021/06/20 07:40:13;;;;;;;10.37;5.17;;;30.10;56.50;;;;;;5144771;27;20211;-70
2021/06/20 07:42:41;;;;;;;9.00;5.20;;;30.30;56.30;;;;;;5146451;27;20221;-70
2021/06/20 07:45:09;;;;;;;10.40;5.53;;;30.70;54.60;;;;;;5145049;27;20628;-70
2021/06/20 07:47:37;;;;;;;14.87;5.90;;;30.80;54.50;;;;;;5144184;27;20207;-70
2021/06/20 07:50:10;;;;;;;13.37;5.10;;;31.00;54.10;;;;;;5150867;27;20290;-70
2021/06/20 07:52:38;;;;;;;10.63;5.30;;;31.00;53.10;;;;;;5154835;27;20686;-70
2021/06/20 07:55:07;;;;;;;7.90;5.50;;;31.00;52.90;;;;;;5154525;27;20328;-69
2021/06/20 07:57:34;;;;;;;8.47;5.73;;;31.00;52.80;;;;;;5155305;27;20207;-70
2021/06/20 08:00:01;;;;;;;9.33;5.83;;;30.90;53.00;;;;;;5155133;27;20211;-70
2021/06/20 08:02:28;;;;;;;11.80;5.40;;;30.80;52.70;;;;;;5154424;27;20264;-70
2021/06/20 08:04:55;;;;;;;8.73;5.77;;;30.80;53.50;;;;;;5151743;27;20231;-70
2021/06/20 08:07:22;;;;;;;12.27;5.80;;;30.80;53.90;;;;;;5114285;28;20630;-69
2021/06/20 08:09:48;;;;;;;16.47;6.00;;;30.90;52.80;;;;;;5114220;28;20219;-69
2021/06/20 08:12:16;;;;;;;11.67;5.90;;;30.90;52.90;;;;;;5114039;28;20265;-70
2021/06/20 08:14:43;;;;;;;11.13;5.40;;;31.10;53.70;;;;;;5113960;28;20213;-70
2021/06/20 08:17:10;;;;;;;13.57;6.53;;;31.40;53.80;;;;;;5114008;28;20509;-69
2021/06/20 08:19:37;;;;;;;9.83;5.53;;;31.50;53.30;;;;;;5123583;27;20218;-69
2021/06/20 08:22:07;;;;;;;11.50;5.47;;;31.70;53.30;;;;;;5134621;27;20212;-69
2021/06/20 08:24:36;;;;;;;9.47;4.70;;;31.90;52.80;;;;;;5134648;27;20227;-69
2021/06/20 08:27:04;;;;;;;10.07;5.13;;;32.20;52.20;;;;;;5134537;27;20588;-69
2021/06/20 08:29:31;;;;;;;7.57;4.90;;;32.50;51.50;;;;;;5134416;27;20211;-70
2021/06/20 08:31:59;;;;;;;12.37;5.73;;;32.90;51.20;;;;;;5134175;27;20211;-70
2021/06/20 08:34:29;;;;;;;10.80;4.83;;;33.20;50.20;;;;;;5134295;27;20203;-70
2021/06/20 08:36:57;;;;;;;8.53;5.33;;;33.20;48.60;;;;;;5134126;27;20629;-70
2021/06/20 08:39:25;;;;;;;10.33;5.57;;;33.00;49.00;;;;;;5132554;27;20234;-70
2021/06/20 08:41:53;;;;;;;13.77;5.53;;;32.90;49.80;;;;;;5133160;27;20624;-70
2021/06/20 08:44:26;;;;;;;8.23;4.70;;;33.10;50.10;;;;;;5133192;27;20235;-70
2021/06/20 08:46:54;;;;;;;12.03;5.23;;;33.50;49.80;;;;;;5123113;27;20212;-70
2021/06/20 08:49:22;;;;;;;10.00;4.37;;;33.90;47.60;;;;;;5113554;28;20261;-70
2021/06/20 08:51:52;;;;;;;10.90;4.97;;;34.10;46.20;;;;;;5113863;28;20208;-70
2021/06/20 08:54:20;;;;;;;8.20;5.13;;;34.30;46.20;;;;;;5119735;27;20246;-70
2021/06/20 08:56:50;;;;;;;10.93;5.13;;;34.60;45.40;;;;;;5134313;27;20264;-70
2021/06/20 08:59:18;;;;;;;11.77;5.53;;;34.80;44.90;;;;;;5134103;27;20210;-70
2021/06/20 09:01:47;;;;;;;9.00;4.43;;;34.90;43.90;;;;;;5134214;28;20272;-70
2021/06/20 09:04:34;;;;;;;7.60;4.10;;;35.00;44.20;;;;;;5133522;27;20602;-70
2021/06/20 09:07:03;;;;;;;6.67;3.93;;;35.10;44.50;;;;;;5134059;27;20243;-69
2021/06/20 09:09:34;;;;;;;9.23;3.63;;;35.00;45.00;;;;;;5134122;28;20231;-70
2021/06/20 09:12:11;;;;;;;11.93;4.37;;;34.80;44.50;;;;;;5133994;28;20204;-70
2021/06/20 09:14:48;;;;;;;6.30;3.97;;;34.70;44.70;;;;;;5137345;27;20515;-70
2021/06/20 09:17:29;;;;;;;11.93;4.50;;;34.70;45.40;;;;;;5138136;27;20294;-70
2021/06/20 09:20:01;;;;;;;6.93;4.37;;;34.90;44.90;;;;;;5153831;27;20263;-70
2021/06/20 09:22:28;;;;;;;14.50;4.07;;;35.10;44.20;;;;;;5159011;27;20203;-70
2021/06/20 09:25:08;;;;;;;5.47;4.13;;;35.20;43.60;;;;;;5158765;27;20219;-70
2021/06/20 09:27:37;;;;;;;11.23;3.83;;;35.50;42.70;;;;;;5158664;27;20211;-70
2021/06/20 09:30:13;;;;;;;14.20;4.07;;;35.70;41.60;;;;;;5158635;27;20256;-70
2021/06/20 09:32:57;;;;;;;9.13;3.90;;;35.80;41.60;;;;;;5158726;27;20210;-70
2021/06/20 09:35:26;;;;;;;12.83;4.30;;;35.90;41.20;;;;;;5158466;27;20215;-69
2021/06/20 09:37:58;;;;;;;12.27;4.33;;;35.60;41.10;;;;;;5143473;27;20249;-69
2021/06/20 09:40:27;;;;;;;11.20;4.13;;;35.50;41.70;;;;;;5137548;27;20212;-69
2021/06/20 09:42:53;;;;;;;13.67;4.20;;;35.30;41.90;;;;;;5137599;27;20208;-69
2021/06/20 09:45:32;;;;;;;12.53;4.47;;;35.10;39.70;;;;;;5137527;27;20227;-69
2021/06/20 09:47:59;;;;;;;15.00;4.67;;;35.00;41.90;;;;;;5137555;27;20223;-70
2021/06/20 09:50:38;;;;;;;17.40;4.43;;;35.00;40.60;;;;;;5137487;27;20204;-70
2021/06/20 09:53:07;;;;;;;14.97;4.47;;;35.10;41.10;;;;;;5137478;27;20211;-69
2021/06/20 09:55:34;;;;;;;8.23;4.20;;;35.10;41.10;;;;;;5137138;27;20292;-70
2021/06/20 09:58:02;;;;;;;5.80;4.00;;;35.10;41.10;;;;;;5137239;27;20509;-69
2021/06/20 10:00:41;;;;;;;11.27;4.40;;;35.10;41.70;;;;;;5137479;27;20250;-69
2021/06/20 10:03:22;;;;;;;15.03;5.20;;;35.10;40.90;;;;;;5137473;27;20223;-69
2021/06/20 10:05:54;;;;;;;16.47;4.30;;;35.10;41.20;;;;;;5137130;27;20238;-69
2021/06/20 10:08:22;;;;;;;8.43;4.50;;;35.10;41.30;;;;;;5137088;27;20203;-69
2021/06/20 10:10:49;;;;;;;12.37;4.60;;;35.10;42.00;;;;;;5137476;27;20208;-68
2021/06/20 10:13:16;;;;;;;14.93;4.70;;;35.20;40.70;;;;;;5137324;27;20204;-68
2021/06/20 10:15:43;;;;;;;17.27;4.07;;;35.10;41.80;;;;;;5137236;27;20273;-69
2021/06/20 10:18:12;;;;;;;7.93;4.43;;;35.00;43.10;;;;;;5122064;27;20265;-69
2021/06/20 10:20:40;;;;;;;13.67;4.97;;;34.90;44.30;;;;;;5158485;27;20597;-69
2021/06/20 10:36:15;;;;;;;14.93;4.87;;;34.80;42.50;;;;;;5106546;27;20557;-73
2021/06/20 10:38:44;;;;;;;14.80;5.10;;;34.90;41.80;;;;;;5090679;28;20201;-73
2021/06/20 10:41:26;;;;;;;13.13;4.93;;;35.00;42.50;;;;;;5089749;28;20261;-74
2021/06/20 10:43:57;;;;;;;13.67;4.87;;;35.10;43.10;;;;;;5089771;28;20229;-74
2021/06/20 10:46:24;;;;;;;14.60;4.87;;;35.10;41.70;;;;;;5090019;28;20219;-73
2021/06/20 10:48:51;;;;;;;10.07;5.37;;;35.00;41.10;;;;;;5090418;28;20201;-73
2021/06/20 10:51:20;;;;;;;13.07;4.40;;;35.20;42.30;;;;;;5090333;28;20216;-73
2021/06/20 10:53:47;;;;;;;12.87;5.20;;;35.50;41.80;;;;;;5090269;28;20638;-74
2021/06/20 10:56:27;;;;;;;14.87;4.40;;;35.40;40.20;;;;;;5090297;28;20217;-74
2021/06/20 10:58:55;;;;;;;20.73;4.80;;;35.10;40.30;;;;;;5090133;28;20910;-74
2021/06/20 11:01:26;;;;;;;14.27;4.87;;;35.20;41.30;;;;;;5090091;28;20213;-74
2021/06/20 11:03:53;;;;;;;7.87;4.73;;;35.20;40.30;;;;;;5089882;28;20221;-73
2021/06/20 11:06:22;;;;;;;15.60;4.83;;;35.10;41.70;;;;;;5089089;28;20212;-73
2021/06/20 11:09:03;;;;;;;17.20;4.80;;;35.20;41.70;;;;;;5089964;28;20521;-73
2021/06/20 11:11:35;;;;;;;19.57;5.50;;;35.20;42.60;;;;;;5090135;28;20186;-73
2021/06/20 11:14:09;;;;;;;12.50;4.70;;;35.20;43.10;;;;;;5089855;28;20300;-74
2021/06/20 11:16:39;;;;;;;35.67;6.23;;;35.20;43.00;;;;;;5088600;28;20300;-74
2021/06/20 11:19:18;;;;;;;15.33;5.30;;;35.20;42.50;;;;;;5088952;28;20642;-73
2021/06/20 11:22:07;;;;;;;19.20;5.00;;;35.30;42.30;;;;;;5089269;28;20262;-74
2021/06/20 11:24:37;;;;;;;22.30;5.60;;;35.40;42.50;;;;;;5089474;28;20241;-74
2021/06/20 11:27:08;;;;;;;20.27;5.53;;;35.70;42.70;;;;;;5089497;28;20205;-74
2021/06/20 11:29:44;;;;;;;13.07;4.87;;;35.90;41.60;;;;;;5089409;28;20209;-74
2021/06/20 11:32:23;;;;;;;10.70;4.50;;;36.00;41.40;;;;;;5088703;28;20634;-74
2021/06/20 11:34:53;;;;;;;18.60;5.10;;;36.10;40.50;;;;;;5088701;28;20284;-74
2021/06/20 11:37:32;;;;;;;21.10;5.30;;;36.10;39.70;;;;;;5075278;28;20213;-74
2021/06/20 11:40:04;;;;;;;18.33;6.07;;;36.30;40.00;;;;;;5075843;28;20232;-74
2021/06/20 11:42:37;;;;;;;14.27;4.77;;;36.40;38.70;;;;;;5075873;28;20213;-73
2021/06/20 11:45:10;;;;;;;15.17;4.93;;;36.50;39.40;;;;;;5075816;28;20240;-74
2021/06/20 11:47:40;;;;;;;14.90;5.60;;;36.60;39.60;;;;;;5056450;28;20206;-74
2021/06/20 11:50:13;;;;;;;13.67;5.07;;;36.70;39.80;;;;;;5055805;28;20203;-74
2021/06/20 11:52:49;;;;;;;20.67;5.97;;;36.80;38.40;;;;;;5055794;28;20204;-74
2021/06/20 11:55:21;;;;;;;14.93;4.40;;;36.80;38.80;;;;;;5056071;28;20801;-74
2021/06/20 11:57:50;;;;;;;28.50;5.63;;;36.80;38.60;;;;;;5061143;28;20288;-74
2021/06/20 12:00:21;;;;;;;20.10;5.17;;;36.80;37.60;;;;;;5066603;28;20674;-73
2021/06/20 12:03:05;;;;;;;15.00;5.13;;;36.70;38.40;;;;;;5065580;28;20705;-74
2021/06/20 12:05:48;;;;;;;19.87;5.47;;;36.60;38.10;;;;;;5065319;28;20242;-74
2021/06/20 12:08:15;;;;;;;22.70;5.93;;;36.60;39.20;;;;;;5064867;28;20218;-74
2021/06/20 12:10:47;;;;;;;23.00;5.23;;;36.60;40.60;;;;;;5063977;28;20225;-74
2021/06/20 12:13:14;;;;;;;19.57;5.07;;;36.70;39.00;;;;;;5064483;28;20221;-74
2021/06/20 12:15:42;;;;;;;20.97;5.80;;;36.80;38.90;;;;;;5065940;28;20543;-74
2021/06/20 12:18:12;;;;;;;18.13;5.57;;;36.70;38.90;;;;;;5063592;28;20268;-74
2021/06/20 12:20:45;;;;;;;13.63;5.53;;;36.60;39.40;;;;;;5065257;28;20221;-74
2021/06/20 12:23:33;;;;;;;36.10;7.03;;;36.60;38.80;;;;;;5066309;28;20213;-74
2021/06/20 12:26:00;;;;;;;23.73;6.23;;;36.60;38.30;;;;;;5065158;28;20233;-74
2021/06/20 12:28:28;;;;;;;21.07;5.63;;;36.60;38.80;;;;;;5062422;28;20207;-74
2021/06/20 12:30:56;;;;;;;25.67;6.70;;;36.70;38.20;;;;;;5066175;28;20912;-74
2021/06/20 12:33:24;;;;;;;22.10;6.37;;;36.70;38.30;;;;;;5066205;28;20217;-74
2021/06/20 12:36:01;;;;;;;22.43;5.37;;;36.70;38.80;;;;;;5068468;28;20316;-74
2021/06/20 12:38:30;;;;;;;17.40;5.37;;;36.80;39.70;;;;;;5064609;28;20271;-74
2021/06/20 12:40:58;;;;;;;19.20;5.30;;;36.80;39.90;;;;;;5066961;28;20221;-74
2021/06/20 12:43:26;;;;;;;20.63;5.50;;;36.70;40.40;;;;;;5064396;28;20221;-73
2021/06/20 12:46:02;;;;;;;21.07;6.40;;;36.60;40.50;;;;;;5065787;28;20237;-74
2021/06/20 12:48:41;;;;;;;18.57;5.20;;;36.60;40.90;;;;;;5063976;28;20218;-73
2021/06/20 12:51:11;;;;;;;17.90;5.33;;;36.50;40.50;;;;;;5063344;28;20206;-74
2021/06/20 12:53:42;;;;;;;26.87;6.13;;;36.50;41.10;;;;;;5062758;28;20221;-74
2021/06/20 12:56:23;;;;;;;20.70;6.20;;;36.60;42.00;;;;;;5061485;28;20725;-73
2021/06/20 12:59:19;;;;;;;23.20;5.63;;;36.60;41.30;;;;;;5064658;28;20615;-73
2021/06/20 13:01:52;;;;;;;21.87;5.57;;;36.70;40.70;;;;;;5052706;28;20221;-74
2021/06/20 13:04:20;;;;;;;32.70;6.57;;;36.70;40.10;;;;;;5061193;28;20234;-73
2021/06/20 13:06:50;;;;;;;31.50;6.57;;;36.70;38.20;;;;;;5064059;28;20264;-73